EIN63J EIDW-EBBR
Flight info
| Callsign | EIN63J |
|---|---|
| Flight time | 1h 16m |
| Altitude | 33000 |
| Route | PESIT2J PESIT DCT BAKUR DCT GUBJE DCT DAVAZ DCT AVZAC DCT ICOSA DCT RUHUN DCT UNZIB DCT NUCHU L607 BIG/N0459F290 Q70 VABIK/N0414F230 Q70 KOK |
| Aircraft | A320/M-SDE3FGHIRWY/LB1 |
Departure
| Time | 2026-05-06 18:51 |
|---|---|
| Airport | Dublin Airport (EIDW) |
Arrival
| Time | 2026-05-06 20:07 |
|---|---|
| Airport | Brussels Airport (EBBR) |
| Time | Latitude | Longitude | Altitude | Speed | Heading |
|---|---|---|---|---|---|
| 2026-05-06 18:26 | 53.42190 | -6.23675 | 250 ft | 0 kts | 27° |
| 2026-05-06 18:37 | 53.42186 | -6.23679 | 250 ft | 2 kts | 27° |
| 2026-05-06 18:38 | 53.42173 | -6.23690 | 250 ft | 1 kts | 27° |
| 2026-05-06 18:38 | 53.42164 | -6.23698 | 250 ft | 2 kts | 14° |
| 2026-05-06 18:38 | 53.42149 | -6.23696 | 250 ft | 2 kts | 336° |
| 2026-05-06 18:38 | 53.42138 | -6.23682 | 250 ft | 1 kts | 304° |
| 2026-05-06 18:39 | 53.42135 | -6.23672 | 250 ft | 1 kts | 294° |
| 2026-05-06 18:39 | 53.42134 | -6.23667 | 250 ft | 0 kts | 297° |
| 2026-05-06 18:39 | 53.42134 | -6.23668 | 250 ft | 0 kts | 297° |
| 2026-05-06 18:41 | 53.42137 | -6.23679 | 250 ft | 3 kts | 297° |
| 2026-05-06 18:42 | 53.42155 | -6.23733 | 250 ft | 7 kts | 304° |
| 2026-05-06 18:42 | 53.42197 | -6.23825 | 250 ft | 11 kts | 309° |
| 2026-05-06 18:42 | 53.42238 | -6.23956 | 250 ft | 13 kts | 296° |
| 2026-05-06 18:42 | 53.42252 | -6.24106 | 250 ft | 13 kts | 244° |
| 2026-05-06 18:43 | 53.42182 | -6.24217 | 250 ft | 14 kts | 219° |
| 2026-05-06 18:43 | 53.42159 | -6.24362 | 250 ft | 14 kts | 279° |
| 2026-05-06 18:43 | 53.42170 | -6.24529 | 250 ft | 14 kts | 276° |
| 2026-05-06 18:43 | 53.42179 | -6.24704 | 250 ft | 14 kts | 288° |
| 2026-05-06 18:44 | 53.42255 | -6.24808 | 250 ft | 15 kts | 346° |
| 2026-05-06 18:44 | 53.42356 | -6.24856 | 250 ft | 15 kts | 339° |
| 2026-05-06 18:44 | 53.42454 | -6.24929 | 250 ft | 15 kts | 336° |
| 2026-05-06 18:44 | 53.42559 | -6.25003 | 250 ft | 16 kts | 337° |
| 2026-05-06 18:45 | 53.42663 | -6.25079 | 250 ft | 16 kts | 336° |
| 2026-05-06 18:45 | 53.42709 | -6.25213 | 250 ft | 15 kts | 237° |
| 2026-05-06 18:45 | 53.42634 | -6.25339 | 250 ft | 15 kts | 225° |
| 2026-05-06 18:45 | 53.42558 | -6.25467 | 250 ft | 15 kts | 223° |
| 2026-05-06 18:46 | 53.42479 | -6.25596 | 250 ft | 16 kts | 226° |
| 2026-05-06 18:46 | 53.42400 | -6.25732 | 250 ft | 16 kts | 225° |
| 2026-05-06 18:46 | 53.42317 | -6.25866 | 250 ft | 16 kts | 226° |
| 2026-05-06 18:46 | 53.42261 | -6.26038 | 250 ft | 17 kts | 261° |
| 2026-05-06 18:47 | 53.42268 | -6.26235 | 250 ft | 17 kts | 277° |
| 2026-05-06 18:47 | 53.42276 | -6.26436 | 250 ft | 17 kts | 272° |
| 2026-05-06 18:47 | 53.42287 | -6.26638 | 250 ft | 17 kts | 276° |
| 2026-05-06 18:47 | 53.42298 | -6.26844 | 250 ft | 17 kts | 275° |
| 2026-05-06 18:48 | 53.42308 | -6.27052 | 250 ft | 18 kts | 276° |
| 2026-05-06 18:48 | 53.42321 | -6.27263 | 250 ft | 18 kts | 276° |
| 2026-05-06 18:48 | 53.42334 | -6.27473 | 250 ft | 18 kts | 276° |
| 2026-05-06 18:48 | 53.42344 | -6.27682 | 250 ft | 18 kts | 275° |
| 2026-05-06 18:49 | 53.42355 | -6.27893 | 250 ft | 18 kts | 275° |
| 2026-05-06 18:49 | 53.42366 | -6.28108 | 250 ft | 18 kts | 276° |
| 2026-05-06 18:49 | 53.42375 | -6.28259 | 250 ft | 0 kts | 275° |
| 2026-05-06 18:49 | 53.42356 | -6.28311 | 250 ft | 13 kts | 210° |
| 2026-05-06 18:50 | 53.42266 | -6.28285 | 250 ft | 14 kts | 139° |
| 2026-05-06 18:50 | 53.42199 | -6.28158 | 250 ft | 13 kts | 113° |
| 2026-05-06 18:50 | 53.42200 | -6.28128 | 250 ft | 0 kts | 75° |
| 2026-05-06 18:50 | 53.42200 | -6.28117 | 250 ft | 1 kts | 86° |
| 2026-05-06 18:51 | 53.42192 | -6.27993 | 250 ft | 40 kts | 98° |
| 2026-05-06 18:51 | 53.42134 | -6.27057 | 250 ft | 117 kts | 95° |
| 2026-05-06 18:51 | 53.42040 | -6.25384 | 434 ft | 163 kts | 98° |
| 2026-05-06 18:51 | 53.41915 | -6.23463 | 1094 ft | 173 kts | 98° |
| 2026-05-06 18:52 | 53.41798 | -6.21404 | 1850 ft | 187 kts | 98° |
| 2026-05-06 18:52 | 53.41662 | -6.19139 | 2339 ft | 212 kts | 97° |
| 2026-05-06 18:52 | 53.41512 | -6.16553 | 2831 ft | 235 kts | 97° |
| 2026-05-06 18:52 | 53.41341 | -6.13715 | 3465 ft | 253 kts | 97° |
| 2026-05-06 18:53 | 53.40908 | -6.10816 | 4122 ft | 266 kts | 110° |
| 2026-05-06 18:53 | 53.40417 | -6.07828 | 5119 ft | 268 kts | 102° |
| 2026-05-06 18:53 | 53.39900 | -6.04814 | 5985 ft | 273 kts | 120° |
| 2026-05-06 18:53 | 53.38736 | -6.02380 | 6952 ft | 271 kts | 136° |
| 2026-05-06 18:54 | 53.37162 | -6.00656 | 7724 ft | 276 kts | 163° |
| 2026-05-06 18:54 | 53.35262 | -6.00093 | 8550 ft | 279 kts | 174° |
| 2026-05-06 18:54 | 53.33344 | -5.99727 | 9399 ft | 283 kts | 175° |
| 2026-05-06 18:54 | 53.31416 | -5.99356 | 10261 ft | 286 kts | 175° |
| 2026-05-06 18:55 | 53.29429 | -5.98941 | 10903 ft | 297 kts | 174° |
| 2026-05-06 18:55 | 53.27322 | -5.98443 | 11357 ft | 315 kts | 173° |
| 2026-05-06 18:55 | 53.25098 | -5.97886 | 11759 ft | 334 kts | 173° |
| 2026-05-06 18:55 | 53.22749 | -5.97279 | 12142 ft | 352 kts | 173° |
| 2026-05-06 18:56 | 53.20296 | -5.96635 | 12710 ft | 362 kts | 173° |
| 2026-05-06 18:56 | 53.17816 | -5.95976 | 13476 ft | 366 kts | 173° |
| 2026-05-06 18:56 | 53.15294 | -5.95306 | 14241 ft | 369 kts | 173° |
| 2026-05-06 18:56 | 53.12781 | -5.94640 | 14949 ft | 373 kts | 173° |
| 2026-05-06 18:57 | 53.10183 | -5.93954 | 15635 ft | 378 kts | 173° |
| 2026-05-06 18:57 | 53.07606 | -5.93273 | 16297 ft | 382 kts | 172° |
| 2026-05-06 18:57 | 53.04977 | -5.92578 | 16946 ft | 386 kts | 172° |
| 2026-05-06 18:57 | 53.02317 | -5.91876 | 17587 ft | 390 kts | 172° |
| 2026-05-06 18:58 | 52.99645 | -5.91174 | 18204 ft | 394 kts | 172° |
| 2026-05-06 18:58 | 52.96920 | -5.90457 | 18818 ft | 398 kts | 172° |
| 2026-05-06 18:58 | 52.94172 | -5.89733 | 19402 ft | 402 kts | 172° |
| 2026-05-06 18:58 | 52.91424 | -5.89010 | 19969 ft | 406 kts | 172° |
| 2026-05-06 18:59 | 52.88611 | -5.88272 | 20532 ft | 410 kts | 172° |
| 2026-05-06 18:59 | 52.85800 | -5.87538 | 21074 ft | 414 kts | 172° |
| 2026-05-06 18:59 | 52.82975 | -5.86802 | 21604 ft | 418 kts | 172° |
| 2026-05-06 18:59 | 52.80098 | -5.86052 | 22155 ft | 421 kts | 172° |
| 2026-05-06 19:00 | 52.77215 | -5.85300 | 22668 ft | 424 kts | 172° |
| 2026-05-06 19:00 | 52.74293 | -5.84540 | 23159 ft | 428 kts | 172° |
| 2026-05-06 19:00 | 52.71351 | -5.83775 | 23655 ft | 431 kts | 172° |
| 2026-05-06 19:00 | 52.68374 | -5.83001 | 24145 ft | 434 kts | 172° |
| 2026-05-06 19:01 | 52.65397 | -5.82228 | 24615 ft | 438 kts | 172° |
| 2026-05-06 19:01 | 52.62359 | -5.81440 | 25056 ft | 441 kts | 171° |
| 2026-05-06 19:01 | 52.59359 | -5.80663 | 25482 ft | 445 kts | 171° |
| 2026-05-06 19:01 | 52.56281 | -5.79868 | 25895 ft | 448 kts | 171° |
| 2026-05-06 19:02 | 52.53212 | -5.79076 | 26324 ft | 451 kts | 171° |
| 2026-05-06 19:02 | 52.50131 | -5.78281 | 26729 ft | 454 kts | 171° |
| 2026-05-06 19:02 | 52.46981 | -5.77470 | 27232 ft | 454 kts | 171° |
| 2026-05-06 19:02 | 52.43925 | -5.76685 | 27812 ft | 452 kts | 171° |
| 2026-05-06 19:03 | 52.40810 | -5.75780 | 28394 ft | 450 kts | 168° |
| 2026-05-06 19:03 | 52.37817 | -5.74639 | 28943 ft | 448 kts | 164° |
| 2026-05-06 19:03 | 52.34806 | -5.73214 | 29480 ft | 447 kts | 162° |
| 2026-05-06 19:03 | 52.31848 | -5.71763 | 29992 ft | 446 kts | 162° |
| 2026-05-06 19:04 | 52.28907 | -5.70328 | 30499 ft | 445 kts | 162° |
| 2026-05-06 19:04 | 52.25939 | -5.68872 | 31001 ft | 444 kts | 161° |
| 2026-05-06 19:04 | 52.23037 | -5.67244 | 31443 ft | 442 kts | 158° |
| 2026-05-06 19:04 | 52.20220 | -5.65387 | 31806 ft | 443 kts | 155° |
| 2026-05-06 19:05 | 52.17390 | -5.63466 | 32112 ft | 445 kts | 155° |
| 2026-05-06 19:05 | 52.14537 | -5.61536 | 32423 ft | 447 kts | 156° |
| 2026-05-06 19:05 | 52.11666 | -5.59599 | 32746 ft | 448 kts | 155° |
| 2026-05-06 19:05 | 52.08789 | -5.57664 | 32967 ft | 450 kts | 156° |
| 2026-05-06 19:06 | 52.05889 | -5.55718 | 32980 ft | 451 kts | 156° |
| 2026-05-06 19:06 | 52.00154 | -5.51729 | 32987 ft | 451 kts | 154° |
| 2026-05-06 19:07 | 51.94508 | -5.47371 | 32990 ft | 450 kts | 148° |
| 2026-05-06 19:07 | 51.89557 | -5.41332 | 32992 ft | 450 kts | 133° |
| 2026-05-06 19:08 | 51.85638 | -5.33530 | 32995 ft | 450 kts | 120° |
| 2026-05-06 19:08 | 51.82837 | -5.24540 | 32993 ft | 451 kts | 112° |
| 2026-05-06 19:09 | 51.80254 | -5.15347 | 32991 ft | 452 kts | 112° |
| 2026-05-06 19:09 | 51.77998 | -5.05893 | 32990 ft | 451 kts | 106° |
| 2026-05-06 19:10 | 51.76433 | -4.96188 | 32988 ft | 451 kts | 99° |
| 2026-05-06 19:10 | 51.75258 | -4.86250 | 32986 ft | 452 kts | 98° |
| 2026-05-06 19:11 | 51.74088 | -4.76356 | 32986 ft | 452 kts | 99° |
| 2026-05-06 19:11 | 51.72895 | -4.66410 | 32986 ft | 451 kts | 99° |
| 2026-05-06 19:12 | 51.71699 | -4.56543 | 32987 ft | 451 kts | 99° |
| 2026-05-06 19:12 | 51.70490 | -4.46646 | 32989 ft | 451 kts | 99° |
| 2026-05-06 19:13 | 51.69280 | -4.36815 | 32988 ft | 451 kts | 99° |
| 2026-05-06 19:13 | 51.68055 | -4.26926 | 32987 ft | 451 kts | 100° |
| 2026-05-06 19:14 | 51.66819 | -4.17004 | 32987 ft | 451 kts | 100° |
| 2026-05-06 19:14 | 51.65583 | -4.07174 | 32986 ft | 451 kts | 100° |
| 2026-05-06 19:15 | 51.64339 | -3.97353 | 32987 ft | 451 kts | 100° |
| 2026-05-06 19:15 | 51.63075 | -3.87470 | 32987 ft | 451 kts | 100° |
| 2026-05-06 19:16 | 51.61814 | -3.77667 | 32989 ft | 450 kts | 100° |
| 2026-05-06 19:16 | 51.60540 | -3.67848 | 32990 ft | 451 kts | 100° |
| 2026-05-06 19:17 | 51.59402 | -3.57993 | 32988 ft | 450 kts | 96° |
| 2026-05-06 19:17 | 51.58763 | -3.47975 | 32987 ft | 450 kts | 94° |
| 2026-05-06 19:18 | 51.58188 | -3.37999 | 32994 ft | 450 kts | 94° |
| 2026-05-06 19:18 | 51.57600 | -3.28017 | 33004 ft | 450 kts | 95° |
| 2026-05-06 19:19 | 51.57005 | -3.18087 | 33005 ft | 450 kts | 95° |
| 2026-05-06 19:19 | 51.56396 | -3.08121 | 33002 ft | 449 kts | 95° |
| 2026-05-06 19:20 | 51.55777 | -2.98126 | 33002 ft | 449 kts | 95° |
| 2026-05-06 19:20 | 51.55156 | -2.88250 | 33001 ft | 449 kts | 95° |
| 2026-05-06 19:21 | 51.54522 | -2.78297 | 33001 ft | 449 kts | 95° |
| 2026-05-06 19:21 | 51.53878 | -2.68320 | 33001 ft | 449 kts | 95° |
| 2026-05-06 19:22 | 51.53228 | -2.58390 | 33002 ft | 449 kts | 95° |
| 2026-05-06 19:22 | 51.52571 | -2.48479 | 33003 ft | 449 kts | 95° |
| 2026-05-06 19:23 | 51.51905 | -2.38559 | 33005 ft | 449 kts | 95° |
| 2026-05-06 19:23 | 51.51232 | -2.28635 | 33005 ft | 449 kts | 96° |
| 2026-05-06 19:24 | 51.50548 | -2.18687 | 33006 ft | 449 kts | 96° |
| 2026-05-06 19:24 | 51.49857 | -2.08778 | 33005 ft | 448 kts | 96° |
| 2026-05-06 19:25 | 51.49155 | -1.98864 | 33008 ft | 449 kts | 96° |
| 2026-05-06 19:25 | 51.48444 | -1.89000 | 33005 ft | 449 kts | 96° |
| 2026-05-06 19:26 | 51.47725 | -1.79058 | 33004 ft | 449 kts | 96° |
| 2026-05-06 19:26 | 51.46999 | -1.69146 | 33003 ft | 450 kts | 96° |
| 2026-05-06 19:27 | 51.46496 | -1.59254 | 33004 ft | 449 kts | 94° |
| 2026-05-06 19:27 | 51.46044 | -1.49263 | 33001 ft | 450 kts | 94° |
| 2026-05-06 19:28 | 51.45584 | -1.39325 | 33003 ft | 450 kts | 94° |
| 2026-05-06 19:28 | 51.45114 | -1.29378 | 33003 ft | 450 kts | 95° |
| 2026-05-06 19:29 | 51.44630 | -1.19360 | 33004 ft | 450 kts | 95° |
| 2026-05-06 19:29 | 51.44142 | -1.09418 | 33006 ft | 449 kts | 95° |
| 2026-05-06 19:30 | 51.43648 | -0.99519 | 33002 ft | 449 kts | 95° |
| 2026-05-06 19:30 | 51.43142 | -0.89570 | 33001 ft | 449 kts | 95° |
| 2026-05-06 19:31 | 51.42624 | -0.79604 | 33004 ft | 449 kts | 95° |
| 2026-05-06 19:31 | 51.41837 | -0.64717 | 32997 ft | 450 kts | 95° |
| 2026-05-06 19:32 | 51.41302 | -0.54793 | 32997 ft | 449 kts | 95° |
| 2026-05-06 19:32 | 51.40760 | -0.44884 | 33000 ft | 449 kts | 95° |
| 2026-05-06 19:33 | 51.40208 | -0.34969 | 33001 ft | 449 kts | 95° |
| 2026-05-06 19:33 | 51.39648 | -0.25026 | 32992 ft | 448 kts | 95° |
| 2026-05-06 19:34 | 51.39082 | -0.15144 | 32996 ft | 449 kts | 95° |
| 2026-05-06 19:34 | 51.38505 | -0.05222 | 32996 ft | 449 kts | 95° |
| 2026-05-06 19:35 | 51.37919 | 0.04705 | 32999 ft | 449 kts | 95° |
| 2026-05-06 19:35 | 51.37319 | 0.14709 | 32998 ft | 458 kts | 95° |
| 2026-05-06 19:36 | 51.36702 | 0.24833 | 32995 ft | 459 kts | 95° |
| 2026-05-06 19:36 | 51.36077 | 0.34981 | 33001 ft | 459 kts | 95° |
| 2026-05-06 19:37 | 51.35445 | 0.45078 | 32998 ft | 459 kts | 95° |
| 2026-05-06 19:37 | 51.34803 | 0.55197 | 32997 ft | 458 kts | 95° |
| 2026-05-06 19:38 | 51.34152 | 0.65329 | 32999 ft | 458 kts | 96° |
| 2026-05-06 19:38 | 51.33828 | 0.70312 | 32842 ft | 455 kts | 96° |
| 2026-05-06 19:38 | 51.33499 | 0.75351 | 32076 ft | 459 kts | 96° |
| 2026-05-06 19:39 | 51.33165 | 0.80439 | 31100 ft | 464 kts | 96° |
| 2026-05-06 19:39 | 51.32828 | 0.85523 | 30350 ft | 462 kts | 96° |
| 2026-05-06 19:39 | 51.32495 | 0.90514 | 29741 ft | 457 kts | 96° |
| 2026-05-06 19:39 | 51.32156 | 0.95576 | 29130 ft | 453 kts | 96° |
| 2026-05-06 19:40 | 51.31825 | 1.00469 | 28536 ft | 448 kts | 96° |
| 2026-05-06 19:40 | 51.31492 | 1.05372 | 27952 ft | 444 kts | 96° |
| 2026-05-06 19:40 | 51.31158 | 1.10255 | 27352 ft | 440 kts | 96° |
| 2026-05-06 19:40 | 51.30825 | 1.15091 | 26745 ft | 436 kts | 96° |
| 2026-05-06 19:41 | 51.30495 | 1.19849 | 26152 ft | 432 kts | 96° |
| 2026-05-06 19:41 | 51.30164 | 1.24591 | 25563 ft | 428 kts | 96° |
| 2026-05-06 19:41 | 51.29839 | 1.29220 | 24985 ft | 425 kts | 96° |
| 2026-05-06 19:41 | 51.29509 | 1.33909 | 24415 ft | 421 kts | 96° |
| 2026-05-06 19:42 | 51.29182 | 1.38516 | 23860 ft | 418 kts | 96° |
| 2026-05-06 19:42 | 51.28856 | 1.43094 | 23300 ft | 414 kts | 96° |
| 2026-05-06 19:42 | 51.28527 | 1.47680 | 23011 ft | 421 kts | 96° |
| 2026-05-06 19:42 | 51.28191 | 1.52342 | 22985 ft | 425 kts | 96° |
| 2026-05-06 19:43 | 51.27855 | 1.56975 | 22985 ft | 426 kts | 96° |
| 2026-05-06 19:43 | 51.27442 | 1.61672 | 22971 ft | 426 kts | 102° |
| 2026-05-06 19:43 | 51.26730 | 1.66184 | 22977 ft | 425 kts | 107° |
| 2026-05-06 19:43 | 51.25906 | 1.70750 | 22977 ft | 425 kts | 107° |
| 2026-05-06 19:44 | 51.25088 | 1.75265 | 22978 ft | 425 kts | 107° |
| 2026-05-06 19:44 | 51.24289 | 1.79770 | 22973 ft | 425 kts | 107° |
| 2026-05-06 19:44 | 51.23502 | 1.84288 | 22973 ft | 425 kts | 106° |
| 2026-05-06 19:44 | 51.22720 | 1.88829 | 22977 ft | 425 kts | 106° |
| 2026-05-06 19:45 | 51.21936 | 1.93407 | 22975 ft | 425 kts | 106° |
| 2026-05-06 19:45 | 51.21162 | 1.97935 | 22975 ft | 425 kts | 106° |
| 2026-05-06 19:45 | 51.20365 | 2.02393 | 22976 ft | 425 kts | 107° |
| 2026-05-06 19:45 | 51.19491 | 2.06931 | 22975 ft | 425 kts | 108° |
| 2026-05-06 19:46 | 51.18621 | 2.11374 | 22973 ft | 424 kts | 108° |
| 2026-05-06 19:46 | 51.17739 | 2.15877 | 22975 ft | 424 kts | 108° |
| 2026-05-06 19:46 | 51.16878 | 2.20287 | 22844 ft | 419 kts | 108° |
| 2026-05-06 19:46 | 51.16024 | 2.24670 | 22291 ft | 416 kts | 108° |
| 2026-05-06 19:47 | 51.15167 | 2.29064 | 21623 ft | 415 kts | 108° |
| 2026-05-06 19:47 | 51.14321 | 2.33395 | 21025 ft | 413 kts | 107° |
| 2026-05-06 19:47 | 51.13466 | 2.37773 | 20447 ft | 409 kts | 107° |
| 2026-05-06 19:47 | 51.12628 | 2.42060 | 19872 ft | 406 kts | 107° |
| 2026-05-06 19:48 | 51.11803 | 2.46270 | 19299 ft | 403 kts | 107° |
| 2026-05-06 19:48 | 51.10973 | 2.50496 | 18725 ft | 400 kts | 107° |
| 2026-05-06 19:48 | 51.10151 | 2.54666 | 18164 ft | 396 kts | 107° |
| 2026-05-06 19:48 | 51.09328 | 2.58836 | 17613 ft | 392 kts | 107° |
| 2026-05-06 19:49 | 51.08521 | 2.62920 | 17072 ft | 389 kts | 107° |
| 2026-05-06 19:49 | 51.07712 | 2.67007 | 16520 ft | 386 kts | 108° |
| 2026-05-06 19:49 | 51.06920 | 2.71013 | 15940 ft | 383 kts | 108° |
| 2026-05-06 19:49 | 51.06122 | 2.75039 | 15391 ft | 380 kts | 108° |
| 2026-05-06 19:50 | 51.05333 | 2.79004 | 14832 ft | 377 kts | 107° |
| 2026-05-06 19:50 | 51.04547 | 2.82946 | 14282 ft | 374 kts | 107° |
| 2026-05-06 19:50 | 51.03761 | 2.86875 | 13761 ft | 371 kts | 107° |
| 2026-05-06 19:50 | 51.02988 | 2.90733 | 13218 ft | 368 kts | 107° |
| 2026-05-06 19:51 | 51.02214 | 2.94587 | 12710 ft | 364 kts | 107° |
| 2026-05-06 19:51 | 51.01449 | 2.98386 | 12220 ft | 361 kts | 107° |
| 2026-05-06 19:51 | 51.00694 | 3.02131 | 11707 ft | 357 kts | 107° |
| 2026-05-06 19:51 | 50.99947 | 3.05830 | 11191 ft | 355 kts | 107° |
| 2026-05-06 19:52 | 50.99195 | 3.09548 | 10658 ft | 352 kts | 107° |
| 2026-05-06 19:52 | 50.98454 | 3.13203 | 10149 ft | 349 kts | 107° |
| 2026-05-06 19:52 | 50.97715 | 3.16839 | 9639 ft | 347 kts | 107° |
| 2026-05-06 19:52 | 50.96978 | 3.20462 | 9135 ft | 343 kts | 107° |
| 2026-05-06 19:53 | 50.96249 | 3.24037 | 8642 ft | 339 kts | 107° |
| 2026-05-06 19:53 | 50.95536 | 3.27529 | 8180 ft | 335 kts | 107° |
| 2026-05-06 19:53 | 50.94816 | 3.31044 | 7957 ft | 333 kts | 107° |
| 2026-05-06 19:53 | 50.94104 | 3.34517 | 7947 ft | 334 kts | 107° |
| 2026-05-06 19:54 | 50.93387 | 3.38010 | 7951 ft | 334 kts | 106° |
| 2026-05-06 19:54 | 50.92675 | 3.41473 | 7948 ft | 334 kts | 106° |
| 2026-05-06 19:54 | 50.91951 | 3.44990 | 7946 ft | 334 kts | 106° |
| 2026-05-06 19:54 | 50.91233 | 3.48468 | 7940 ft | 333 kts | 106° |
| 2026-05-06 19:55 | 50.90522 | 3.51906 | 7674 ft | 328 kts | 106° |
| 2026-05-06 19:55 | 50.89807 | 3.55351 | 7082 ft | 328 kts | 107° |
| 2026-05-06 19:55 | 50.89089 | 3.58751 | 6542 ft | 326 kts | 107° |
| 2026-05-06 19:55 | 50.88378 | 3.62104 | 6037 ft | 323 kts | 106° |
| 2026-05-06 19:56 | 50.87671 | 3.65466 | 5524 ft | 320 kts | 107° |
| 2026-05-06 19:56 | 50.86982 | 3.68760 | 5010 ft | 317 kts | 107° |
| 2026-05-06 19:56 | 50.86294 | 3.72068 | 4517 ft | 314 kts | 106° |
| 2026-05-06 19:56 | 50.85617 | 3.75309 | 4084 ft | 310 kts | 106° |
| 2026-05-06 19:57 | 50.84954 | 3.78484 | 4000 ft | 299 kts | 105° |
| 2026-05-06 19:57 | 50.84315 | 3.81531 | 3991 ft | 282 kts | 105° |
| 2026-05-06 19:57 | 50.83698 | 3.84473 | 3991 ft | 279 kts | 105° |
| 2026-05-06 19:57 | 50.83102 | 3.87305 | 3992 ft | 271 kts | 105° |
| 2026-05-06 19:58 | 50.82509 | 3.90131 | 3991 ft | 271 kts | 105° |
| 2026-05-06 19:58 | 50.81912 | 3.92965 | 3994 ft | 271 kts | 105° |
| 2026-05-06 19:58 | 50.81321 | 3.95772 | 3996 ft | 271 kts | 106° |
| 2026-05-06 19:58 | 50.80725 | 3.98590 | 3993 ft | 270 kts | 105° |
| 2026-05-06 19:59 | 50.80133 | 4.01382 | 3995 ft | 270 kts | 105° |
| 2026-05-06 19:59 | 50.79538 | 4.04190 | 3994 ft | 270 kts | 105° |
| 2026-05-06 19:59 | 50.78936 | 4.07023 | 3989 ft | 270 kts | 105° |
| 2026-05-06 19:59 | 50.78338 | 4.09834 | 3993 ft | 270 kts | 105° |
| 2026-05-06 20:00 | 50.77744 | 4.12624 | 3992 ft | 270 kts | 105° |
| 2026-05-06 20:00 | 50.77147 | 4.15425 | 3991 ft | 270 kts | 105° |
| 2026-05-06 20:00 | 50.76562 | 4.18154 | 3987 ft | 255 kts | 105° |
| 2026-05-06 20:00 | 50.76001 | 4.20763 | 3796 ft | 246 kts | 105° |
| 2026-05-06 20:01 | 50.75466 | 4.23262 | 3628 ft | 238 kts | 104° |
| 2026-05-06 20:01 | 50.74938 | 4.25727 | 3268 ft | 239 kts | 104° |
| 2026-05-06 20:01 | 50.74411 | 4.28192 | 3012 ft | 235 kts | 104° |
| 2026-05-06 20:01 | 50.73904 | 4.30537 | 2989 ft | 223 kts | 104° |
| 2026-05-06 20:02 | 50.73403 | 4.32863 | 2993 ft | 224 kts | 104° |
| 2026-05-06 20:02 | 50.72901 | 4.35200 | 2991 ft | 224 kts | 104° |
| 2026-05-06 20:02 | 50.72404 | 4.37523 | 2989 ft | 224 kts | 102° |
| 2026-05-06 20:02 | 50.72270 | 4.39866 | 2962 ft | 205 kts | 73° |
| 2026-05-06 20:03 | 50.72835 | 4.41755 | 2963 ft | 184 kts | 44° |
| 2026-05-06 20:03 | 50.73845 | 4.42859 | 3074 ft | 177 kts | 25° |
| 2026-05-06 20:03 | 50.75017 | 4.43544 | 3055 ft | 180 kts | 18° |
| 2026-05-06 20:03 | 50.76211 | 4.44060 | 2779 ft | 173 kts | 15° |
| 2026-05-06 20:04 | 50.77321 | 4.44500 | 2517 ft | 160 kts | 15° |
| 2026-05-06 20:04 | 50.78359 | 4.44912 | 2310 ft | 148 kts | 16° |
| 2026-05-06 20:04 | 50.79356 | 4.45317 | 2105 ft | 148 kts | 16° |
| 2026-05-06 20:04 | 50.80352 | 4.45726 | 1907 ft | 147 kts | 16° |
| 2026-05-06 20:05 | 50.81333 | 4.46128 | 1716 ft | 147 kts | 16° |
| 2026-05-06 20:05 | 50.82299 | 4.46518 | 1531 ft | 135 kts | 16° |
| 2026-05-06 20:05 | 50.83154 | 4.46872 | 1287 ft | 124 kts | 17° |
| 2026-05-06 20:05 | 50.83967 | 4.47213 | 1151 ft | 120 kts | 17° |
| 2026-05-06 20:06 | 50.84778 | 4.47552 | 1026 ft | 120 kts | 16° |
| 2026-05-06 20:06 | 50.85582 | 4.47875 | 914 ft | 121 kts | 15° |
| 2026-05-06 20:06 | 50.86407 | 4.48209 | 745 ft | 122 kts | 16° |
| 2026-05-06 20:06 | 50.87225 | 4.48546 | 582 ft | 122 kts | 15° |
| 2026-05-06 20:07 | 50.88045 | 4.48874 | 373 ft | 122 kts | 15° |
| 2026-05-06 20:07 | 50.88870 | 4.49214 | 224 ft | 124 kts | 15° |
| 2026-05-06 20:07 | 50.89619 | 4.49518 | 193 ft | 79 kts | 16° |
| 2026-05-06 20:07 | 50.89888 | 4.49629 | 193 ft | 20 kts | 14° |
| 2026-05-06 20:08 | 50.90099 | 4.49712 | 193 ft | 33 kts | 7° |
| 2026-05-06 20:08 | 50.90321 | 4.49667 | 193 ft | 30 kts | 345° |
| 2026-05-06 20:08 | 50.90378 | 4.49643 | 193 ft | 4 kts | 345° |
| 2026-05-06 20:08 | 50.90416 | 4.49626 | 193 ft | 5 kts | 336° |
| 2026-05-06 20:09 | 50.90420 | 4.49615 | 193 ft | 0 kts | 266° |
| 2026-05-06 20:09 | 50.90420 | 4.49612 | 193 ft | 1 kts | 266° |
| 2026-05-06 20:09 | 50.90417 | 4.49590 | 193 ft | 2 kts | 240° |
| 2026-05-06 20:09 | 50.90399 | 4.49557 | 193 ft | 4 kts | 226° |
| 2026-05-06 20:10 | 50.90380 | 4.49503 | 193 ft | 6 kts | 243° |
| 2026-05-06 20:10 | 50.90359 | 4.49431 | 193 ft | 8 kts | 245° |
| 2026-05-06 20:10 | 50.90333 | 4.49340 | 193 ft | 9 kts | 245° |
| 2026-05-06 20:10 | 50.90302 | 4.49237 | 193 ft | 11 kts | 243° |
| 2026-05-06 20:11 | 50.90267 | 4.49120 | 193 ft | 12 kts | 245° |
| 2026-05-06 20:11 | 50.90231 | 4.49017 | 193 ft | 6 kts | 208° |
| 2026-05-06 20:11 | 50.90190 | 4.49041 | 193 ft | 7 kts | 151° |
| 2026-05-06 20:11 | 50.90174 | 4.49054 | 193 ft | 0 kts | 155° |
| 2026-05-06 20:12 | 50.90167 | 4.49059 | 193 ft | 2 kts | 153° |
| 2026-05-06 20:12 | 50.90165 | 4.49061 | 193 ft | 0 kts | 153° |